Time;durP1;ratioP1;P1;durP2;ratioP2;P2;SDS_P1;SDS_P2;PMS_P1;PMS_P2;Temp;Humidity;BMP_temperature;BMP_pressure;BME280_temperature;BME280_humidity;BME280_pressure;Samples;Min_cycle;Max_cycle;Signal;HPM_P1;HPM_P2
2021/06/17 00:00:21;;;;;;;5.63;4.90;;;18.00;99.90;;;;;;5060435;28;20184;-78
2021/06/17 00:02:48;;;;;;;5.60;5.10;;;17.90;99.90;;;;;;5062026;28;20242;-80
2021/06/17 00:05:15;;;;;;;6.03;5.43;;;17.90;99.90;;;;;;5081893;28;20170;-80
2021/06/17 00:07:41;;;;;;;6.03;5.43;;;17.90;99.90;;;;;;5064074;28;20205;-76
2021/06/17 00:10:19;;;;;;;5.68;5.07;;;17.80;99.90;;;;;;5064170;28;20178;-78
2021/06/17 00:12:45;;;;;;;6.82;5.53;;;17.80;99.90;;;;;;5080362;28;20192;-78
2021/06/17 00:15:12;;;;;;;6.10;5.45;;;17.80;99.90;;;;;;5082071;28;20545;-77
2021/06/17 00:17:41;;;;;;;6.28;5.75;;;17.80;99.90;;;;;;5063745;28;20201;-79
2021/06/17 00:20:07;;;;;;;6.15;5.55;;;17.80;99.90;;;;;;5081888;28;20178;-78
2021/06/17 00:22:33;;;;;;;7.85;6.10;;;17.80;99.90;;;;;;5083346;28;20215;-77
2021/06/17 00:24:59;;;;;;;6.72;5.60;;;17.80;99.90;;;;;;5082699;28;21095;-77
2021/06/17 00:27:26;;;;;;;6.80;5.80;;;17.70;99.90;;;;;;5061975;28;20228;-80
2021/06/17 00:29:52;;;;;;;7.07;5.70;;;17.60;99.90;;;;;;5080134;28;20292;-77
2021/06/17 00:32:18;;;;;;;6.57;5.43;;;17.50;99.90;;;;;;5081591;28;20212;-78
2021/06/17 00:34:43;;;;;;;6.95;5.47;;;17.50;99.90;;;;;;5062884;28;20173;-78
2021/06/17 00:37:09;;;;;;;8.77;5.90;;;17.50;99.90;;;;;;5081665;28;20605;-78
2021/06/17 00:39:35;;;;;;;7.07;6.18;;;17.40;99.90;;;;;;5081997;28;20846;-77
2021/06/17 00:42:00;;;;;;;6.72;5.93;;;17.40;99.90;;;;;;5066068;28;20176;-77
2021/06/17 00:44:26;;;;;;;6.55;5.60;;;17.40;99.90;;;;;;5079440;28;20720;-78
2021/06/17 00:46:51;;;;;;;7.22;5.85;;;17.50;99.90;;;;;;5063879;28;20287;-77
2021/06/17 00:49:17;;;;;;;6.88;6.18;;;17.40;99.90;;;;;;5063294;28;21142;-78
2021/06/17 00:51:42;;;;;;;7.28;6.47;;;17.50;99.90;;;;;;5081302;28;20187;-78
2021/06/17 00:54:08;;;;;;;8.63;7.10;;;17.50;99.90;;;;;;5079879;28;20208;-77
2021/06/17 00:56:34;;;;;;;10.07;6.28;;;17.40;99.90;;;;;;5081052;28;20200;-77
2021/06/17 00:59:00;;;;;;;6.97;5.95;;;17.40;99.90;;;;;;5079620;28;21272;-80
2021/06/17 01:01:25;;;;;;;7.97;6.28;;;17.40;99.90;;;;;;5083340;28;20690;-77
2021/06/17 01:03:51;;;;;;;6.75;6.05;;;17.40;99.90;;;;;;5079916;28;20184;-78
2021/06/17 01:06:17;;;;;;;6.43;5.82;;;17.40;99.90;;;;;;5080892;28;20251;-76
2021/06/17 01:09:04;;;;;;;7.60;6.88;;;17.40;99.90;;;;;;5062818;28;20235;-80
2021/06/17 01:11:35;;;;;;;7.88;6.60;;;17.40;99.90;;;;;;5080264;28;20681;-79
2021/06/17 01:14:07;;;;;;;7.90;7.10;;;17.40;99.90;;;;;;5079920;28;20288;-77
2021/06/17 01:16:38;;;;;;;8.57;6.25;;;17.30;99.90;;;;;;5062361;28;20580;-77
2021/06/17 01:19:33;;;;;;;9.07;7.00;;;17.30;99.90;;;;;;5079102;28;20188;-78
2021/06/17 01:22:15;;;;;;;7.30;6.60;;;17.30;99.90;;;;;;5063544;28;20284;-78
2021/06/17 01:25:48;;;;;;;7.50;6.80;;;17.30;99.90;;;;;;5079630;28;20220;-77
2021/06/17 01:28:17;;;;;;;7.10;6.40;;;17.30;99.90;;;;;;4931301;28;20220;-78
2021/06/17 01:31:03;;;;;;;7.95;7.15;;;17.30;99.90;;;;;;5079719;28;20226;-78
2021/06/17 01:33:36;;;;;;;8.90;6.65;;;17.30;99.90;;;;;;5079327;28;20225;-79
2021/06/17 01:36:09;;;;;;;7.00;5.70;;;17.30;99.90;;;;;;5060073;28;20713;-77
2021/06/17 01:38:36;;;;;;;7.75;6.95;;;17.30;99.90;;;;;;5080043;28;20244;-78
2021/06/17 01:41:04;;;;;;;7.63;6.93;;;17.30;99.90;;;;;;5078844;28;20253;-78
2021/06/17 01:43:31;;;;;;;7.30;6.60;;;17.30;99.90;;;;;;5081552;28;20173;-80
2021/06/17 01:45:58;;;;;;;8.27;6.75;;;17.30;99.90;;;;;;5079667;28;20355;-79
2021/06/17 01:48:24;;;;;;;6.95;6.25;;;17.20;99.90;;;;;;5062219;28;20232;-77
2021/06/17 01:50:51;;;;;;;6.88;6.18;;;17.20;99.90;;;;;;5062976;28;20585;-78
2021/06/17 01:53:22;;;;;;;8.70;6.97;;;17.20;99.90;;;;;;5080372;28;20794;-76
2021/06/17 01:55:48;;;;;;;8.40;7.07;;;17.20;99.90;;;;;;5078503;28;20667;-79
2021/06/17 01:58:15;;;;;;;9.05;7.05;;;17.10;99.90;;;;;;5063674;28;20238;-77
2021/06/17 02:00:44;;;;;;;6.85;6.25;;;17.10;99.90;;;;;;5080078;28;20189;-78
2021/06/17 02:03:11;;;;;;;7.00;6.30;;;17.10;99.90;;;;;;5063177;28;20185;-77
2021/06/17 02:05:37;;;;;;;7.13;6.40;;;17.10;99.90;;;;;;5062539;28;20193;-76
2021/06/17 02:08:05;;;;;;;7.82;6.90;;;17.10;99.90;;;;;;5080551;28;20243;-78
2021/06/17 02:10:31;;;;;;;7.90;7.07;;;17.10;99.90;;;;;;5065123;28;20615;-77
2021/06/17 02:12:58;;;;;;;7.20;6.50;;;17.10;99.90;;;;;;5077374;28;20217;-77
2021/06/17 02:15:27;;;;;;;7.60;6.63;;;17.10;99.90;;;;;;5076612;28;20178;-78
2021/06/17 02:17:55;;;;;;;11.13;6.82;;;16.90;99.90;;;;;;5061567;28;20721;-76
2021/06/17 02:20:22;;;;;;;8.38;7.00;;;16.90;99.90;;;;;;5077710;28;20177;-79
2021/06/17 02:22:49;;;;;;;6.95;6.20;;;17.00;99.90;;;;;;5064480;28;21019;-77
2021/06/17 02:25:20;;;;;;;8.52;6.20;;;16.90;99.90;;;;;;5079263;28;20177;-77
2021/06/17 02:27:51;;;;;;;6.47;5.72;;;16.90;99.90;;;;;;5081622;28;20224;-78
2021/06/17 02:30:18;;;;;;;7.72;6.93;;;17.00;99.90;;;;;;5082243;28;20245;-78
2021/06/17 02:32:49;;;;;;;10.52;7.10;;;16.90;99.90;;;;;;5078113;28;20183;-79
2021/06/17 02:35:20;;;;;;;6.72;5.93;;;16.80;99.90;;;;;;5079878;28;20247;-77
2021/06/17 02:37:50;;;;;;;8.52;7.68;;;16.80;99.90;;;;;;5080556;28;20209;-77
2021/06/17 02:40:18;;;;;;;8.25;6.63;;;16.80;99.90;;;;;;5081305;28;20189;-77
2021/06/17 02:42:45;;;;;;;9.68;6.75;;;16.80;99.90;;;;;;5066199;28;20186;-78
2021/06/17 02:45:11;;;;;;;9.05;7.00;;;16.70;99.90;;;;;;5080896;28;20186;-78
2021/06/17 02:47:38;;;;;;;7.38;5.72;;;16.70;99.90;;;;;;5064303;28;20201;-77
2021/06/17 02:50:05;;;;;;;7.90;6.65;;;16.70;99.90;;;;;;5063840;28;20230;-78
2021/06/17 02:52:31;;;;;;;6.30;5.70;;;16.60;99.90;;;;;;5079322;28;20186;-77
2021/06/17 02:54:56;;;;;;;8.30;6.88;;;16.70;99.90;;;;;;5079151;28;20184;-78
2021/06/17 02:57:38;;;;;;;7.97;7.18;;;16.70;99.90;;;;;;5081898;28;20200;-77
2021/06/17 03:00:03;;;;;;;7.20;6.32;;;16.60;99.90;;;;;;5080775;28;20227;-77
2021/06/17 03:02:44;;;;;;;7.50;6.60;;;16.60;99.90;;;;;;5083007;28;20201;-77
2021/06/17 03:05:32;;;;;;;8.43;6.65;;;16.70;99.90;;;;;;5064152;28;20208;-76
2021/06/17 03:08:15;;;;;;;7.47;6.78;;;16.70;99.90;;;;;;5081056;28;20745;-77
2021/06/17 03:10:44;;;;;;;9.52;7.68;;;16.80;99.90;;;;;;5080184;28;20177;-79
2021/06/17 03:13:10;;;;;;;8.68;6.95;;;16.80;99.90;;;;;;5080565;28;20169;-79
2021/06/17 03:15:40;;;;;;;7.70;6.90;;;16.80;99.90;;;;;;5063736;28;20180;-79
2021/06/17 03:18:07;;;;;;;6.05;5.45;;;16.80;99.90;;;;;;5080626;28;20180;-78
2021/06/17 03:20:38;;;;;;;8.20;5.97;;;16.90;99.90;;;;;;5062700;28;20185;-78
2021/06/17 03:23:06;;;;;;;8.00;6.55;;;16.90;99.90;;;;;;5061450;28;20220;-77
2021/06/17 03:25:35;;;;;;;6.88;6.18;;;16.90;99.90;;;;;;5062008;28;20177;-77
2021/06/17 03:28:01;;;;;;;6.30;5.70;;;16.90;99.90;;;;;;5062124;28;20205;-77
2021/06/17 03:30:29;;;;;;;6.60;5.88;;;16.90;99.90;;;;;;5062648;28;20211;-77
2021/06/17 03:32:58;;;;;;;9.48;6.50;;;17.00;99.90;;;;;;5062208;28;20263;-77
2021/06/17 03:35:28;;;;;;;7.57;6.70;;;17.00;99.90;;;;;;5064710;28;20181;-77
2021/06/17 03:37:54;;;;;;;6.93;6.13;;;17.00;99.90;;;;;;5062394;28;20727;-77
2021/06/17 03:40:20;;;;;;;11.68;5.95;;;17.00;99.90;;;;;;5064692;28;20272;-76
2021/06/17 03:42:48;;;;;;;7.30;6.38;;;17.10;99.90;;;;;;5083789;28;20282;-78
2021/06/17 03:45:15;;;;;;;7.90;6.22;;;17.10;99.90;;;;;;5083332;28;20182;-77
2021/06/17 03:47:48;;;;;;;6.82;6.13;;;17.10;99.90;;;;;;5085073;28;20200;-78
2021/06/17 03:50:15;;;;;;;9.15;6.88;;;17.10;99.90;;;;;;5067961;28;20170;-77
2021/06/17 03:52:45;;;;;;;8.45;6.90;;;17.20;99.90;;;;;;5068306;28;20189;-76
2021/06/17 03:55:14;;;;;;;7.65;6.55;;;17.10;99.90;;;;;;5069036;28;20201;-77
2021/06/17 03:57:40;;;;;;;7.07;6.38;;;17.10;99.90;;;;;;5051832;28;20202;-78
2021/06/17 04:00:06;;;;;;;7.80;7.07;;;17.10;99.90;;;;;;5068843;28;20187;-77
2021/06/17 04:02:32;;;;;;;8.45;7.55;;;17.20;99.90;;;;;;5084358;28;20196;-78
2021/06/17 04:04:58;;;;;;;8.18;7.00;;;17.20;99.90;;;;;;5084197;28;20173;-77
2021/06/17 04:07:25;;;;;;;7.85;6.80;;;17.20;99.90;;;;;;5086333;28;20196;-77
2021/06/17 04:09:52;;;;;;;9.20;6.68;;;17.30;99.90;;;;;;5084254;28;20208;-77
2021/06/17 04:12:21;;;;;;;6.93;6.28;;;17.30;99.90;;;;;;5084880;28;20231;-77
2021/06/17 04:14:50;;;;;;;8.05;6.75;;;17.40;99.90;;;;;;5082776;28;20182;-80
2021/06/17 04:17:23;;;;;;;7.65;6.78;;;17.50;99.90;;;;;;5065684;28;20198;-77
2021/06/17 04:19:50;;;;;;;7.25;6.45;;;17.60;99.90;;;;;;5071736;28;20189;-77
2021/06/17 04:22:18;;;;;;;8.15;6.53;;;17.80;99.90;;;;;;5086139;28;20269;-78
2021/06/17 04:25:16;;;;;;;8.43;6.80;;;18.20;99.90;;;;;;5084608;28;20234;-78
2021/06/17 04:27:43;;;;;;;6.60;5.80;;;19.30;99.90;;;;;;5064498;28;20216;-77
2021/06/17 04:30:10;;;;;;;8.13;5.65;;;20.50;99.90;;;;;;5064575;28;20665;-78
2021/06/17 04:32:39;;;;;;;7.35;6.03;;;21.30;99.90;;;;;;5082653;28;20193;-77
2021/06/17 04:35:05;;;;;;;6.18;5.57;;;21.90;99.90;;;;;;5079698;28;20594;-77
2021/06/17 04:37:31;;;;;;;6.43;5.82;;;22.70;99.90;;;;;;5081712;28;20205;-78
2021/06/17 04:39:59;;;;;;;6.40;5.70;;;23.40;99.90;;;;;;5062551;28;20195;-78
2021/06/17 04:42:26;;;;;;;5.90;5.40;;;24.00;99.90;;;;;;5063388;28;20181;-80
2021/06/17 04:44:53;;;;;;;6.70;6.00;;;24.30;99.90;;;;;;5078083;28;20557;-78
2021/06/17 04:47:20;;;;;;;6.75;6.07;;;24.70;99.90;;;;;;5064056;28;20219;-79
2021/06/17 04:49:47;;;;;;;8.35;5.90;;;24.80;99.90;;;;;;5061077;28;20213;-78
2021/06/17 04:52:26;;;;;;;6.38;5.78;;;25.00;99.90;;;;;;5062414;28;20647;-78
2021/06/17 04:54:51;;;;;;;7.18;6.47;;;25.10;99.90;;;;;;5060040;28;20193;-78
2021/06/17 04:57:17;;;;;;;7.55;6.85;;;25.70;99.90;;;;;;5079672;28;20816;-79
2021/06/17 04:59:42;;;;;;;8.50;6.82;;;25.70;99.90;;;;;;5079185;28;20182;-77
2021/06/17 05:02:08;;;;;;;7.60;6.90;;;26.20;99.90;;;;;;5080130;28;20256;-78
2021/06/17 05:04:35;;;;;;;7.80;7.10;;;26.10;99.90;;;;;;5043572;28;20177;-78
2021/06/17 05:12:11;;;;;;;6.93;6.25;;;26.70;99.90;;;;;;5078450;28;20599;-78
2021/06/17 05:14:36;;;;;;;9.05;7.68;;;27.00;99.90;;;;;;5077342;28;20193;-77
2021/06/17 05:17:02;;;;;;;8.27;6.50;;;27.30;99.90;;;;;;5075952;28;20270;-78
2021/06/17 05:19:28;;;;;;;7.57;6.43;;;27.50;99.90;;;;;;5076302;28;20193;-78
2021/06/17 05:21:53;;;;;;;7.13;6.30;;;28.00;99.90;;;;;;5057571;28;20185;-78
2021/06/17 05:24:19;;;;;;;8.02;7.22;;;27.90;99.90;;;;;;5080241;28;20283;-81
2021/06/17 05:26:45;;;;;;;9.05;6.57;;;28.00;99.90;;;;;;5081093;28;20201;-78
2021/06/17 05:29:10;;;;;;;6.88;6.18;;;27.90;99.90;;;;;;5078261;28;20225;-79
2021/06/17 05:31:36;;;;;;;8.15;6.97;;;28.30;99.90;;;;;;5058225;28;20189;-78
2021/06/17 05:34:01;;;;;;;7.47;6.78;;;28.40;99.90;;;;;;5056735;28;20207;-80
2021/06/17 05:36:27;;;;;;;7.18;6.47;;;28.30;99.90;;;;;;5076467;28;20212;-79
2021/06/17 05:38:53;;;;;;;7.30;6.70;;;28.50;99.90;;;;;;5078375;28;20178;-79
2021/06/17 05:41:19;;;;;;;8.38;7.50;;;28.90;99.90;;;;;;5061793;28;20181;-78
2021/06/17 05:43:44;;;;;;;7.68;6.88;;;28.50;99.90;;;;;;5076982;28;20555;-80
2021/06/17 05:46:10;;;;;;;7.65;6.95;;;28.50;99.90;;;;;;5076176;28;20189;-79
2021/06/17 05:48:36;;;;;;;7.90;7.20;;;28.50;99.90;;;;;;5077506;28;20463;-79
2021/06/17 05:51:02;;;;;;;8.73;7.85;;;28.60;99.90;;;;;;5059047;28;20181;-79
2021/06/17 05:53:27;;;;;;;7.55;6.85;;;29.10;99.90;;;;;;5076957;28;20233;-78
2021/06/17 05:55:53;;;;;;;8.40;7.43;;;29.00;99.90;;;;;;5058776;28;20280;-79
2021/06/17 05:58:19;;;;;;;7.82;7.15;;;29.30;99.90;;;;;;5076477;28;20647;-81
2021/06/17 06:00:45;;;;;;;7.45;6.72;;;29.20;99.90;;;;;;5057201;28;20714;-78
2021/06/17 06:03:11;;;;;;;6.47;5.95;;;28.90;99.90;;;;;;5052476;28;20177;-79
2021/06/17 06:05:37;;;;;;;7.25;6.65;;;28.60;99.90;;;;;;5074238;28;20219;-78
2021/06/17 06:08:11;;;;;;;8.50;7.65;;;29.10;99.90;;;;;;5075530;28;20857;-79
2021/06/17 06:10:38;;;;;;;6.97;6.32;;;29.40;99.90;;;;;;5059148;28;20185;-78
2021/06/17 06:13:04;;;;;;;8.50;7.78;;;29.40;99.90;;;;;;5075146;28;20181;-78
2021/06/17 06:15:35;;;;;;;7.63;6.93;;;29.90;99.90;;;;;;5073255;28;20608;-79
2021/06/17 06:18:08;;;;;;;7.60;6.93;;;29.60;99.90;;;;;;5073863;28;20255;-79
2021/06/17 06:20:35;;;;;;;7.13;6.57;;;29.70;99.90;;;;;;5071661;28;20182;-78
2021/06/17 06:23:00;;;;;;;7.10;6.47;;;29.90;99.90;;;;;;5072286;28;20206;-79
2021/06/17 06:25:26;;;;;;;7.75;7.05;;;29.90;99.90;;;;;;5072497;28;21362;-79
2021/06/17 06:27:52;;;;;;;7.63;6.93;;;29.90;99.90;;;;;;5074688;28;20213;-79
2021/06/17 06:30:18;;;;;;;7.95;6.50;;;30.30;99.90;;;;;;5072162;28;21256;-81
2021/06/17 06:32:43;;;;;;;7.55;6.82;;;30.40;99.90;;;;;;5073719;28;20225;-81
2021/06/17 06:35:10;;;;;;;7.93;7.22;;;30.60;99.90;;;;;;5075056;28;20255;-79
2021/06/17 06:37:37;;;;;;;7.10;6.50;;;30.70;99.90;;;;;;5074210;28;20598;-80
2021/06/17 06:40:03;;;;;;;6.53;6.00;;;30.20;99.90;;;;;;5074233;28;20178;-79
2021/06/17 06:42:29;;;;;;;6.75;6.15;;;29.90;99.90;;;;;;5074775;28;20185;-78
2021/06/17 06:44:55;;;;;;;7.18;6.45;;;29.40;99.90;;;;;;5074978;28;20231;-77
2021/06/17 06:47:20;;;;;;;7.07;6.43;;;28.90;99.90;;;;;;5070757;28;20208;-75
2021/06/17 06:49:46;;;;;;;7.20;6.60;;;28.20;99.90;;;;;;5054878;28;20217;-75
2021/06/17 06:52:12;;;;;;;7.88;6.32;;;27.80;99.90;;;;;;5067957;28;20197;-74
2021/06/17 06:54:37;;;;;;;7.45;6.65;;;27.40;99.90;;;;;;5076348;28;20289;-75
2021/06/17 06:57:03;;;;;;;6.90;6.15;;;27.20;99.90;;;;;;5071037;28;20200;-75
2021/06/17 06:59:29;;;;;;;7.05;6.35;;;27.20;99.90;;;;;;5072465;28;20207;-75
2021/06/17 07:01:54;;;;;;;6.70;6.10;;;27.10;99.90;;;;;;5068676;28;20690;-75
2021/06/17 07:04:20;;;;;;;6.85;6.25;;;27.00;99.90;;;;;;5072363;28;20188;-75
2021/06/17 07:06:47;;;;;;;6.85;6.25;;;27.20;99.90;;;;;;5070076;28;20209;-74
2021/06/17 07:09:13;;;;;;;7.05;6.35;;;27.40;99.90;;;;;;5072848;28;20207;-74
2021/06/17 07:11:39;;;;;;;6.80;5.70;;;27.30;99.90;;;;;;5072763;28;20570;-74
2021/06/17 07:14:06;;;;;;;6.95;6.35;;;27.20;99.90;;;;;;5068866;28;20377;-74
2021/06/17 07:16:32;;;;;;;6.45;5.85;;;27.40;99.90;;;;;;5068509;28;20725;-74
2021/06/17 07:18:57;;;;;;;7.38;6.70;;;27.50;99.90;;;;;;5070300;28;20186;-75
2021/06/17 07:21:23;;;;;;;7.38;6.68;;;27.50;99.90;;;;;;5073112;28;20184;-75
2021/06/17 07:23:53;;;;;;;6.38;5.80;;;27.50;99.90;;;;;;5070481;28;20205;-74
2021/06/17 07:26:26;;;;;;;7.53;6.20;;;27.70;99.90;;;;;;5071654;28;20594;-74
2021/06/17 07:28:52;;;;;;;6.55;5.95;;;27.70;99.90;;;;;;5071463;28;20223;-75
2021/06/17 07:31:17;;;;;;;7.15;6.55;;;27.80;99.90;;;;;;5070525;28;20178;-75
2021/06/17 07:33:43;;;;;;;7.22;5.93;;;28.10;99.90;;;;;;5068751;28;20180;-74
2021/06/17 07:36:12;;;;;;;6.93;6.32;;;28.20;99.90;;;;;;5066631;28;20205;-78
2021/06/17 07:38:38;;;;;;;6.68;6.13;;;28.30;99.90;;;;;;5058029;28;20737;-75
2021/06/17 07:41:03;;;;;;;6.32;5.78;;;28.40;99.90;;;;;;5069515;28;20295;-75
2021/06/17 07:43:30;;;;;;;6.93;6.32;;;28.50;99.90;;;;;;5068855;28;20548;-74
2021/06/17 07:45:56;;;;;;;7.47;6.80;;;28.50;99.90;;;;;;5069671;28;20205;-75
2021/06/17 07:48:22;;;;;;;6.95;6.30;;;28.50;99.90;;;;;;5067186;28;20220;-75
2021/06/17 07:50:47;;;;;;;7.53;6.82;;;28.60;99.90;;;;;;5068992;28;20182;-75
2021/06/17 07:53:13;;;;;;;6.90;6.20;;;28.60;99.90;;;;;;5067991;28;20187;-75
2021/06/17 07:55:39;;;;;;;7.15;6.40;;;28.60;99.90;;;;;;5067656;28;20421;-75
2021/06/17 07:58:04;;;;;;;8.20;7.00;;;28.60;99.90;;;;;;5069232;28;20647;-75
2021/06/17 08:00:30;;;;;;;7.20;6.50;;;28.70;99.90;;;;;;5074263;28;20237;-75
2021/06/17 08:02:58;;;;;;;7.28;6.57;;;29.00;99.90;;;;;;5070956;28;20544;-74
2021/06/17 08:05:23;;;;;;;7.72;6.97;;;29.20;99.90;;;;;;5073964;28;20198;-75
2021/06/17 08:07:49;;;;;;;6.97;6.30;;;29.00;99.90;;;;;;5073867;28;20204;-75
2021/06/17 08:10:15;;;;;;;6.82;6.22;;;29.10;99.90;;;;;;5069408;28;20178;-76
2021/06/17 08:12:40;;;;;;;6.45;5.85;;;29.30;99.90;;;;;;5050963;28;20177;-75
2021/06/17 08:15:07;;;;;;;7.40;6.70;;;29.60;99.90;;;;;;5068680;28;20577;-76
2021/06/17 08:17:33;;;;;;;6.05;5.45;;;29.60;99.90;;;;;;5068419;28;20629;-76
2021/06/17 08:19:58;;;;;;;6.80;6.20;;;29.70;99.90;;;;;;5071017;28;20272;-76
2021/06/17 08:22:26;;;;;;;6.88;6.28;;;29.80;99.90;;;;;;5072807;28;20185;-75
2021/06/17 08:24:53;;;;;;;6.55;5.95;;;29.60;99.90;;;;;;5071487;28;20204;-76
2021/06/17 08:27:18;;;;;;;7.00;6.40;;;29.90;99.90;;;;;;5075703;28;20892;-76
2021/06/17 08:29:44;;;;;;;6.32;5.75;;;30.00;99.90;;;;;;5075009;28;20209;-77
2021/06/17 08:32:10;;;;;;;6.80;6.20;;;29.90;99.90;;;;;;5071946;28;20627;-76
2021/06/17 08:34:36;;;;;;;6.50;6.00;;;30.00;99.90;;;;;;5078634;28;20678;-76
2021/06/17 08:37:04;;;;;;;6.60;6.05;;;30.20;99.90;;;;;;5050957;28;20204;-76
2021/06/17 08:39:30;;;;;;;6.32;5.75;;;30.30;99.90;;;;;;5073685;28;20307;-76
2021/06/17 08:41:55;;;;;;;6.25;5.75;;;30.50;99.90;;;;;;5073237;28;20299;-76
2021/06/17 08:44:21;;;;;;;6.15;5.65;;;30.50;99.90;;;;;;5072091;28;20190;-77
2021/06/17 08:46:47;;;;;;;6.13;5.63;;;30.60;99.90;;;;;;5072608;28;20661;-76
2021/06/17 08:49:15;;;;;;;5.78;5.28;;;30.80;99.90;;;;;;5078354;28;20214;-78
2021/06/17 08:51:41;;;;;;;6.60;6.10;;;30.90;99.90;;;;;;5075114;28;20173;-78
2021/06/17 08:54:08;;;;;;;6.57;5.88;;;30.90;99.90;;;;;;5052518;28;20185;-76
2021/06/17 08:56:35;;;;;;;6.40;5.90;;;30.90;99.90;;;;;;5072450;28;20879;-76
2021/06/17 08:59:00;;;;;;;6.85;6.25;;;30.90;99.90;;;;;;5079377;28;20204;-79
2021/06/17 09:01:26;;;;;;;6.75;6.15;;;31.10;99.90;;;;;;5072077;28;20182;-81
2021/06/17 09:03:54;;;;;;;6.32;5.82;;;31.20;99.90;;;;;;5079373;28;20188;-79
2021/06/17 09:06:23;;;;;;;7.88;5.68;;;31.30;99.90;;;;;;5071419;28;20447;-79
2021/06/17 09:09:00;;;;;;;6.50;5.70;;;31.30;99.90;;;;;;5076158;28;20607;-79
2021/06/17 09:11:28;;;;;;;6.05;5.55;;;31.50;99.90;;;;;;5055486;28;20181;-77
2021/06/17 09:14:18;;;;;;;6.13;5.63;;;31.50;99.90;;;;;;5074005;28;20334;-81
2021/06/17 09:17:00;;;;;;;5.95;5.32;;;31.60;99.90;;;;;;5054494;28;20275;-81
2021/06/17 09:19:44;;;;;;;5.88;5.32;;;31.70;99.90;;;;;;5068698;28;20191;-79
2021/06/17 09:22:14;;;;;;;5.40;4.90;;;31.80;99.90;;;;;;5054506;28;20579;-79
2021/06/17 09:24:43;;;;;;;5.70;4.65;;;31.70;99.90;;;;;;5071893;28;20203;-77
2021/06/17 09:27:43;;;;;;;5.68;4.88;;;31.80;99.90;;;;;;5053003;28;20587;-77
2021/06/17 09:30:11;;;;;;;6.25;5.65;;;32.00;99.90;;;;;;5048657;28;20234;-79
2021/06/17 09:32:40;;;;;;;5.88;5.38;;;32.10;99.90;;;;;;5072622;28;20768;-80
2021/06/17 09:35:20;;;;;;;6.20;5.70;;;32.10;99.90;;;;;;5076933;28;20205;-77
2021/06/17 09:37:45;;;;;;;5.80;5.30;;;32.10;99.90;;;;;;5069565;28;20642;-77
2021/06/17 09:40:30;;;;;;;5.80;5.30;;;32.20;99.90;;;;;;5072177;28;20232;-79
2021/06/17 09:43:11;;;;;;;5.00;4.60;;;32.30;99.90;;;;;;5050594;28;20702;-80
2021/06/17 09:45:37;;;;;;;5.20;4.70;;;32.20;99.90;;;;;;5053632;28;20181;-80
2021/06/17 09:48:03;;;;;;;4.95;4.55;;;32.30;99.90;;;;;;5075037;28;20205;-77
2021/06/17 09:50:29;;;;;;;4.72;4.32;;;32.40;99.90;;;;;;5055831;28;20188;-77
2021/06/17 09:52:56;;;;;;;5.47;3.88;;;32.60;99.90;;;;;;5057237;28;20203;-79
2021/06/17 09:55:40;;;;;;;4.22;3.83;;;32.40;99.90;;;;;;5073109;28;20184;-78
2021/06/17 09:58:10;;;;;;;4.40;4.00;;;32.50;99.90;;;;;;5059694;28;20212;-77
2021/06/17 10:00:35;;;;;;;4.65;3.67;;;32.60;99.90;;;;;;5078214;28;20185;-78
2021/06/17 10:03:19;;;;;;;4.85;3.90;;;32.70;99.90;;;;;;5082446;28;20727;-77
2021/06/17 10:05:44;;;;;;;7.03;4.53;;;32.80;99.90;;;;;;5074406;28;20213;-79
2021/06/17 10:08:10;;;;;;;4.60;4.00;;;33.00;99.90;;;;;;5081951;28;20224;-76
2021/06/17 10:10:36;;;;;;;3.92;3.63;;;33.10;99.90;;;;;;5075921;28;20271;-79
2021/06/17 10:13:04;;;;;;;4.97;4.57;;;32.60;99.60;;;;;;5078373;28;20212;-76
2021/06/17 10:15:30;;;;;;;4.10;3.80;;;32.50;99.90;;;;;;5072014;28;20188;-76
2021/06/17 10:17:57;;;;;;;3.88;3.25;;;32.30;97.50;;;;;;5080715;28;20262;-77
2021/06/17 10:20:24;;;;;;;4.13;3.83;;;32.50;98.70;;;;;;5061378;28;20208;-77
2021/06/17 10:22:52;;;;;;;3.53;3.25;;;32.90;99.10;;;;;;5078323;28;20227;-77
2021/06/17 10:25:27;;;;;;;4.53;4.13;;;32.80;98.20;;;;;;5069979;28;20276;-76
2021/06/17 10:27:57;;;;;;;3.83;3.53;;;32.90;97.20;;;;;;5072580;28;20259;-76
2021/06/17 10:30:40;;;;;;;3.50;3.30;;;33.20;96.60;;;;;;5074854;28;20250;-77
2021/06/17 10:33:07;;;;;;;3.30;3.10;;;33.20;95.70;;;;;;5060069;28;20597;-78
2021/06/17 10:35:34;;;;;;;3.67;3.40;;;33.30;94.30;;;;;;5060595;28;20176;-78
2021/06/17 10:38:03;;;;;;;3.67;3.38;;;33.40;91.60;;;;;;5053444;28;20546;-77
2021/06/17 10:40:30;;;;;;;3.13;2.83;;;33.20;94.00;;;;;;5071984;28;20181;-77
2021/06/17 10:43:00;;;;;;;2.35;2.15;;;33.60;93.30;;;;;;5050355;28;20347;-77
2021/06/17 10:45:45;;;;;;;2.00;1.80;;;33.80;89.80;;;;;;5061228;28;20235;-77
2021/06/17 10:48:12;;;;;;;2.22;2.05;;;33.50;79.70;;;;;;5059454;28;20259;-77
2021/06/17 10:50:39;;;;;;;2.30;2.10;;;33.60;84.80;;;;;;5076737;28;20182;-77
2021/06/17 10:53:24;;;;;;;4.90;2.42;;;33.50;90.10;;;;;;5062873;28;20211;-77
2021/06/17 10:55:55;;;;;;;1.98;1.85;;;33.40;86.00;;;;;;5079089;28;20708;-76
2021/06/17 10:58:45;;;;;;;2.03;1.80;;;33.80;87.70;;;;;;5079373;28;20591;-77
2021/06/17 11:01:31;;;;;;;1.67;1.58;;;33.70;77.50;;;;;;5071929;28;20216;-77
2021/06/17 11:04:04;;;;;;;2.03;1.83;;;33.00;79.60;;;;;;5084100;28;20834;-76
2021/06/17 11:06:51;;;;;;;2.28;2.15;;;32.80;79.70;;;;;;5056200;28;20300;-78
2021/06/17 11:09:48;;;;;;;2.22;1.90;;;32.80;83.30;;;;;;5062390;28;20209;-78
2021/06/17 11:12:17;;;;;;;2.25;2.15;;;32.80;83.50;;;;;;5071332;28;20178;-76
2021/06/17 11:14:54;;;;;;;3.65;2.10;;;32.80;86.20;;;;;;5080544;28;20177;-77
2021/06/17 11:17:26;;;;;;;2.30;2.10;;;33.00;81.50;;;;;;5079496;28;20193;-76
2021/06/17 11:19:55;;;;;;;2.60;2.10;;;32.90;81.90;;;;;;5080978;28;20181;-76
2021/06/17 11:22:44;;;;;;;1.73;1.63;;;33.00;79.40;;;;;;5075480;28;20177;-77
2021/06/17 11:25:12;;;;;;;2.15;1.95;;;33.20;81.60;;;;;;5081677;28;20188;-77
2021/06/17 11:27:59;;;;;;;2.47;2.28;;;32.80;79.30;;;;;;5077180;28;20449;-77
2021/06/17 11:30:46;;;;;;;2.03;1.92;;;32.60;75.80;;;;;;5060832;28;20203;-76
2021/06/17 11:33:17;;;;;;;2.00;1.90;;;32.50;77.10;;;;;;5042708;28;20215;-78
2021/06/17 11:36:10;;;;;;;2.10;1.90;;;32.80;80.70;;;;;;5079533;28;20173;-77
2021/06/17 11:38:37;;;;;;;2.25;2.10;;;32.80;80.90;;;;;;5081019;28;20192;-78
2021/06/17 11:41:15;;;;;;;2.20;2.10;;;33.10;83.50;;;;;;5075587;28;20178;-76
2021/06/17 11:43:41;;;;;;;2.05;1.95;;;33.10;80.30;;;;;;5074844;28;20188;-76
2021/06/17 11:46:21;;;;;;;3.22;2.25;;;33.00;75.90;;;;;;5081387;28;20227;-77
2021/06/17 11:49:06;;;;;;;2.33;2.20;;;33.00;76.30;;;;;;5060914;28;20299;-77
2021/06/17 11:51:53;;;;;;;2.58;2.25;;;32.80;72.70;;;;;;5079717;28;20188;-77
2021/06/17 11:54:21;;;;;;;2.22;2.00;;;32.70;76.00;;;;;;5060596;28;20184;-78
2021/06/17 11:56:52;;;;;;;2.00;1.90;;;32.90;76.10;;;;;;5074492;28;20281;-77
2021/06/17 11:59:27;;;;;;;2.15;2.00;;;33.10;78.40;;;;;;5060731;28;20675;-77
2021/06/17 12:02:13;;;;;;;3.65;2.00;;;33.00;73.90;;;;;;5080752;28;20189;-76
2021/06/17 12:04:56;;;;;;;2.08;1.90;;;32.90;74.70;;;;;;5079279;28;20188;-76
2021/06/17 12:07:47;;;;;;;2.38;2.17;;;33.00;74.80;;;;;;5079190;28;20271;-78
2021/06/17 12:10:21;;;;;;;2.00;1.90;;;33.00;74.50;;;;;;5080009;28;20223;-78
2021/06/17 12:12:51;;;;;;;1.92;1.83;;;33.20;73.90;;;;;;5075859;28;20714;-76
2021/06/17 12:15:23;;;;;;;1.80;1.70;;;33.40;71.50;;;;;;5075197;28;20524;-76
2021/06/17 12:17:54;;;;;;;1.90;1.80;;;33.30;72.90;;;;;;5080568;28;20251;-76
2021/06/17 12:20:27;;;;;;;3.10;2.10;;;33.40;70.50;;;;;;5080723;28;20632;-76
2021/06/17 12:22:59;;;;;;;1.95;1.85;;;33.70;71.00;;;;;;5078360;28;20212;-78
2021/06/17 12:25:30;;;;;;;2.50;2.30;;;33.80;70.80;;;;;;5064068;28;20288;-78
2021/06/17 12:27:58;;;;;;;1.90;1.80;;;33.80;67.20;;;;;;5079928;28;20181;-76
2021/06/17 12:30:39;;;;;;;2.28;2.08;;;33.90;70.10;;;;;;5076869;28;20190;-77
2021/06/17 12:33:18;;;;;;;2.30;2.10;;;33.70;67.70;;;;;;5069553;28;20173;-77
2021/06/17 12:35:49;;;;;;;2.10;2.00;;;33.20;69.80;;;;;;5059628;28;20181;-76
2021/06/17 12:38:33;;;;;;;2.22;1.90;;;33.00;68.20;;;;;;5075861;28;20177;-76
2021/06/17 12:41:12;;;;;;;3.20;2.33;;;33.20;69.60;;;;;;5077742;28;20559;-78
2021/06/17 12:43:46;;;;;;;2.78;2.10;;;33.20;71.60;;;;;;5077020;28;20263;-75
2021/06/17 12:46:13;;;;;;;2.13;1.92;;;33.20;73.30;;;;;;5078139;28;20205;-77
2021/06/17 12:54:01;;;;;;;2.30;2.10;;;33.90;67.50;;;;;;5084417;28;20218;-76
2021/06/17 12:56:27;;;;;;;2.63;2.42;;;34.10;66.80;;;;;;5079470;28;20208;-75
2021/06/17 12:58:53;;;;;;;4.38;2.88;;;34.30;69.00;;;;;;5062173;28;20192;-79
2021/06/17 13:01:24;;;;;;;2.33;2.20;;;34.30;66.10;;;;;;5053791;28;20204;-77
2021/06/17 13:03:50;;;;;;;3.17;2.20;;;34.20;67.00;;;;;;5081341;28;20224;-77
2021/06/17 13:06:38;;;;;;;2.38;2.17;;;34.10;66.40;;;;;;5057712;28;20476;-78
2021/06/17 13:09:18;;;;;;;2.00;1.90;;;34.00;68.40;;;;;;5075030;28;20557;-76